createdAt,value
2023-06-20T00:01:58.620Z,16.31
2023-06-20T00:04:25.373Z,16.09
2023-06-20T00:06:51.971Z,16.14
2023-06-20T00:09:18.565Z,16.13
2023-06-20T00:11:45.162Z,16.02
2023-06-20T00:14:13.461Z,16.19
2023-06-20T00:16:40.180Z,16.16
2023-06-20T00:19:06.885Z,16.23
2023-06-20T00:21:33.474Z,16.17
2023-06-20T00:24:00.068Z,16.16
2023-06-20T00:26:26.746Z,16.10
2023-06-20T00:28:53.399Z,16.19
2023-06-20T00:31:21.409Z,16.10
2023-06-20T00:33:48.847Z,16.10
2023-06-20T00:36:15.492Z,15.96
2023-06-20T00:38:42.061Z,16.15
2023-06-20T00:41:08.621Z,16.15
2023-06-20T00:43:35.536Z,16.00
2023-06-20T00:46:02.205Z,16.05
2023-06-20T00:48:30.395Z,15.94
2023-06-20T00:50:57.967Z,16.21
2023-06-20T00:53:24.607Z,16.08
2023-06-20T00:55:52.156Z,16.16
2023-06-20T00:58:19.992Z,16.14
2023-06-20T01:00:46.646Z,15.92
2023-06-20T01:03:14.886Z,15.98
2023-06-20T01:05:53.324Z,15.88
2023-06-20T01:08:25.059Z,16.05
2023-06-20T01:11:01.966Z,16.12
2023-06-20T01:13:41.454Z,15.94
2023-06-20T01:16:17.740Z,15.92
2023-06-20T01:18:53.989Z,15.94
2023-06-20T01:21:29.769Z,15.96
2023-06-20T01:24:02.829Z,15.83
2023-06-20T01:26:36.523Z,15.79
2023-06-20T01:29:17.014Z,15.94
2023-06-20T01:31:51.315Z,15.99
2023-06-20T01:34:21.531Z,15.94
2023-06-20T01:36:54.505Z,15.73
2023-06-20T01:39:25.893Z,15.82
2023-06-20T01:41:54.630Z,15.91
2023-06-20T01:44:22.569Z,15.89
2023-06-20T01:46:51.191Z,15.92
2023-06-20T01:49:18.666Z,15.91
2023-06-20T01:51:50.404Z,15.88
2023-06-20T01:54:18.123Z,15.75
2023-06-20T01:56:47.811Z,15.68
2023-06-20T01:59:16.570Z,15.67
2023-06-20T02:01:46.423Z,15.73
2023-06-20T02:04:15.781Z,15.67
2023-06-20T02:06:45.195Z,15.78
2023-06-20T02:09:13.844Z,15.70
2023-06-20T02:11:41.016Z,15.52
2023-06-20T02:14:09.860Z,15.73
2023-06-20T02:16:36.949Z,15.83
2023-06-20T02:19:04.029Z,15.62
2023-06-20T02:21:34.167Z,15.82
2023-06-20T02:24:03.301Z,15.75
2023-06-20T02:26:31.235Z,15.80
2023-06-20T02:28:59.804Z,15.91
2023-06-20T02:31:30.474Z,15.91
2023-06-20T02:33:59.026Z,15.86
2023-06-20T02:36:28.853Z,15.66
2023-06-20T02:38:57.531Z,15.62
2023-06-20T02:41:24.810Z,15.61
2023-06-20T02:43:51.457Z,15.65
2023-06-20T02:46:26.931Z,15.59
2023-06-20T02:49:05.755Z,15.59
2023-06-20T02:51:38.719Z,15.55
2023-06-20T02:54:11.444Z,15.48
2023-06-20T02:56:40.896Z,15.49
2023-06-20T02:59:10.276Z,15.35
2023-06-20T03:01:39.946Z,15.38
2023-06-20T03:04:10.333Z,15.56
2023-06-20T03:06:38.141Z,15.49
2023-06-20T03:09:05.502Z,15.61
2023-06-20T03:11:33.671Z,15.55
2023-06-20T03:14:00.320Z,15.44
2023-06-20T03:16:27.953Z,15.58
2023-06-20T03:18:55.982Z,15.60
2023-06-20T03:21:29.472Z,15.54
2023-06-20T03:23:59.953Z,15.57
2023-06-20T03:26:26.646Z,15.58
2023-06-20T03:28:53.695Z,15.56
2023-06-20T03:31:20.743Z,15.66
2023-06-20T03:33:47.585Z,15.60
2023-06-20T03:36:14.516Z,15.59
2023-06-20T03:38:43.150Z,15.53
2023-06-20T03:41:10.113Z,15.34
2023-06-20T03:43:37.166Z,15.46
2023-06-20T03:46:03.883Z,15.53
2023-06-20T03:48:30.733Z,15.61
2023-06-20T03:50:58.328Z,15.54
2023-06-20T03:53:27.568Z,15.60
2023-06-20T03:55:55.534Z,15.73
2023-06-20T03:58:22.237Z,15.56
2023-06-20T04:00:48.916Z,15.68
2023-06-20T04:03:17.668Z,15.77
2023-06-20T04:05:44.995Z,15.99
2023-06-20T04:08:12.423Z,16.01
2023-06-20T04:10:39.283Z,15.95
2023-06-20T04:13:08.171Z,16.23
2023-06-20T04:15:35.344Z,15.99
2023-06-20T04:18:03.078Z,15.99
2023-06-20T04:20:30.828Z,16.10
2023-06-20T04:22:57.513Z,16.14
2023-06-20T04:25:24.966Z,16.07
2023-06-20T04:27:51.720Z,16.08
2023-06-20T04:30:19.675Z,16.13
2023-06-20T04:32:48.253Z,16.20
2023-06-20T04:35:15.112Z,16.01
2023-06-20T04:37:42.693Z,16.34
2023-06-20T04:40:11.556Z,16.50
2023-06-20T04:42:38.493Z,16.52
2023-06-20T04:45:06.354Z,16.50
2023-06-20T04:47:34.412Z,16.52
2023-06-20T04:50:02.293Z,16.47
2023-06-20T04:52:29.160Z,16.65
2023-06-20T04:54:55.780Z,16.33
2023-06-20T04:57:22.594Z,16.57
2023-06-20T04:59:49.407Z,16.60
2023-06-20T05:02:16.032Z,16.45
2023-06-20T05:04:44.008Z,16.72
2023-06-20T05:07:11.027Z,16.83
2023-06-20T05:09:38.757Z,16.84
2023-06-20T05:12:06.412Z,17.03
2023-06-20T05:14:33.010Z,16.63
2023-06-20T05:16:59.636Z,17.01
2023-06-20T05:19:26.253Z,17.27
2023-06-20T05:21:54.365Z,16.92
2023-06-20T05:24:21.036Z,17.48
2023-06-20T05:26:47.760Z,17.76
2023-06-20T05:29:14.402Z,17.86
2023-06-20T05:31:42.291Z,17.93
2023-06-20T05:34:09.181Z,18.13
2023-06-20T05:36:36.007Z,18.15
2023-06-20T05:39:04.181Z,18.28
2023-06-20T05:41:30.829Z,18.24
2023-06-20T05:43:57.576Z,18.06
2023-06-20T05:46:26.517Z,18.28
2023-06-20T05:48:53.290Z,18.36
2023-06-20T05:51:20.010Z,18.59
2023-06-20T05:53:48.475Z,18.63
2023-06-20T05:56:25.127Z,18.64
2023-06-20T05:58:51.926Z,18.52
2023-06-20T06:01:18.690Z,18.74
2023-06-20T06:03:45.481Z,18.96
2023-06-20T06:06:15.451Z,19.20
2023-06-20T06:08:42.236Z,19.44
2023-06-20T06:11:12.138Z,19.47
2023-06-20T06:13:40.353Z,19.46
2023-06-20T06:16:07.153Z,19.71
2023-06-20T06:18:35.189Z,19.99
2023-06-20T06:21:04.012Z,19.93
2023-06-20T06:23:31.001Z,19.87
2023-06-20T06:26:03.070Z,19.71
2023-06-20T06:28:29.772Z,19.67
2023-06-20T06:31:09.105Z,19.63
2023-06-20T06:33:36.439Z,19.85
2023-06-20T06:36:03.721Z,19.57
2023-06-20T06:38:30.869Z,19.85
2023-06-20T06:41:02.151Z,20.15
2023-06-20T06:43:28.887Z,20.14
2023-06-20T06:46:01.711Z,20.18
2023-06-20T06:48:29.906Z,20.31
2023-06-20T06:50:56.646Z,20.34
2023-06-20T06:53:25.347Z,20.32
2023-06-20T06:55:52.116Z,20.11
2023-06-20T06:58:18.869Z,20.13
2023-06-20T07:00:45.719Z,20.17
2023-06-20T07:03:15.406Z,20.20
2023-06-20T07:05:43.598Z,20.28
2023-06-20T07:08:10.290Z,20.35
2023-06-20T07:10:36.973Z,20.48
2023-06-20T07:13:03.768Z,20.31
2023-06-20T07:15:30.630Z,20.35
2023-06-20T07:17:57.445Z,20.50
2023-06-20T07:20:24.249Z,20.47
2023-06-20T07:22:52.306Z,20.81
2023-06-20T07:25:20.667Z,20.75
2023-06-20T07:27:47.467Z,21.03
2023-06-20T07:30:14.636Z,20.87
2023-06-20T07:32:47.524Z,21.22
2023-06-20T07:35:26.107Z,20.95
2023-06-20T07:37:54.518Z,21.24
2023-06-20T07:40:21.502Z,21.10
2023-06-20T07:42:48.298Z,21.29
2023-06-20T07:45:15.188Z,21.13
2023-06-20T07:47:44.246Z,21.06
2023-06-20T07:50:11.676Z,21.14
2023-06-20T07:52:38.346Z,21.00
2023-06-20T07:55:20.433Z,21.22
2023-06-20T07:57:55.397Z,21.24
2023-06-20T08:00:22.732Z,21.36
2023-06-20T08:02:52.834Z,21.30
2023-06-20T08:05:19.674Z,21.05
2023-06-20T08:07:50.968Z,21.31
2023-06-20T08:10:19.479Z,21.37
2023-06-20T08:13:13.410Z,21.23
2023-06-20T08:15:42.098Z,21.36
2023-06-20T08:18:11.202Z,21.13
2023-06-20T08:20:38.012Z,21.36
2023-06-20T08:23:04.907Z,21.33
2023-06-20T08:25:32.966Z,21.11
2023-06-20T08:28:14.263Z,21.25
2023-06-20T08:30:42.240Z,21.24
2023-06-20T08:33:08.975Z,21.37
2023-06-20T08:35:37.798Z,21.06
2023-06-20T08:38:04.649Z,21.14
2023-06-20T08:40:32.797Z,21.14
2023-06-20T08:42:59.834Z,21.31
2023-06-20T08:45:26.659Z,21.03
2023-06-20T08:47:53.364Z,20.94
2023-06-20T08:50:20.945Z,20.89
2023-06-20T08:52:53.444Z,21.02
2023-06-20T08:55:21.542Z,21.17
2023-06-20T08:57:49.740Z,21.42
2023-06-20T09:00:19.949Z,21.34
2023-06-20T09:02:46.735Z,21.31
2023-06-20T09:05:13.534Z,21.39
2023-06-20T09:07:41.182Z,21.48
2023-06-20T09:10:10.077Z,21.38
2023-06-20T09:12:47.059Z,21.87
2023-06-20T09:15:15.946Z,21.89
2023-06-20T09:17:42.776Z,21.92
2023-06-20T09:20:10.951Z,22.01
2023-06-20T09:22:39.202Z,22.03
2023-06-20T09:25:06.931Z,22.05
2023-06-20T09:27:34.960Z,22.02
2023-06-20T09:30:01.843Z,22.00
2023-06-20T09:32:33.890Z,22.43
2023-06-20T09:35:03.349Z,22.31
2023-06-20T09:37:38.982Z,22.19
2023-06-20T09:40:07.169Z,22.20
2023-06-20T09:42:34.796Z,22.65
2023-06-20T09:45:01.468Z,22.74
2023-06-20T09:47:31.970Z,22.82
2023-06-20T09:50:08.060Z,23.11
2023-06-20T09:52:39.707Z,23.45
2023-06-20T09:55:09.896Z,23.37
2023-06-20T09:57:44.755Z,23.77
2023-06-20T10:00:15.318Z,23.82
2023-06-20T10:02:45.316Z,23.87
2023-06-20T10:05:15.324Z,23.58
2023-06-20T10:07:44.051Z,23.64
2023-06-20T10:10:11.305Z,23.42
2023-06-20T10:12:39.063Z,23.02
2023-06-20T10:15:08.364Z,23.33
2023-06-20T10:17:38.932Z,23.36
2023-06-20T10:20:09.039Z,23.25
2023-06-20T10:22:37.588Z,23.30
2023-06-20T10:25:06.012Z,23.58
2023-06-20T10:27:32.643Z,23.73
2023-06-20T10:29:59.300Z,23.76
2023-06-20T10:32:25.876Z,23.73
2023-06-20T10:34:52.482Z,23.72
2023-06-20T10:37:38.727Z,23.75
2023-06-20T10:40:06.863Z,23.83
2023-06-20T10:42:38.537Z,23.83
2023-06-20T10:45:18.763Z,23.80
2023-06-20T10:47:45.615Z,23.81
2023-06-20T10:50:12.408Z,24.15
2023-06-20T10:52:40.473Z,24.22
2023-06-20T10:55:08.951Z,24.01
2023-06-20T10:57:36.073Z,23.91
2023-06-20T11:00:06.829Z,23.85
2023-06-20T11:02:34.758Z,24.28
2023-06-20T11:05:02.625Z,23.83
2023-06-20T11:07:39.604Z,23.35
2023-06-20T11:10:15.548Z,23.39
2023-06-20T11:12:43.846Z,24.05
2023-06-20T11:15:27.318Z,23.84
2023-06-20T11:17:55.085Z,23.79
2023-06-20T11:20:23.297Z,24.13
2023-06-20T11:22:51.810Z,24.39
2023-06-20T11:25:24.942Z,24.14
2023-06-20T11:27:51.836Z,24.08
2023-06-20T11:30:25.461Z,24.62
2023-06-20T11:33:05.013Z,24.61
2023-06-20T11:35:42.288Z,24.53
2023-06-20T11:38:10.333Z,24.76
2023-06-20T11:40:38.532Z,24.60
2023-06-20T11:43:05.471Z,24.56
2023-06-20T11:45:32.994Z,24.62
2023-06-20T11:48:09.799Z,24.50
2023-06-20T11:50:36.723Z,24.28
2023-06-20T11:53:04.057Z,24.36
2023-06-20T11:55:51.435Z,24.94
2023-06-20T11:58:18.654Z,24.95
2023-06-20T12:00:46.007Z,25.07
2023-06-20T12:03:15.729Z,25.82
2023-06-20T12:05:42.318Z,25.85
2023-06-20T12:08:08.915Z,25.54
2023-06-20T12:10:39.936Z,25.99
2023-06-20T12:13:07.879Z,25.83
2023-06-20T12:15:34.495Z,25.33
2023-06-20T12:18:01.251Z,24.79
2023-06-20T12:20:33.737Z,25.24
2023-06-20T12:23:02.307Z,25.62
2023-06-20T12:25:28.959Z,25.46
2023-06-20T12:27:55.774Z,25.81
2023-06-20T12:30:23.992Z,25.69
2023-06-20T12:32:50.715Z,25.51
2023-06-20T12:35:17.330Z,26.49
2023-06-20T12:37:43.983Z,26.44
2023-06-20T12:40:12.506Z,25.88
2023-06-20T12:42:39.072Z,26.10
2023-06-20T12:45:07.127Z,26.13
2023-06-20T12:47:35.099Z,26.34
2023-06-20T12:50:01.764Z,25.85
2023-06-20T12:52:28.298Z,25.97
2023-06-20T12:54:55.101Z,25.91
2023-06-20T12:57:21.812Z,26.19
2023-06-20T12:59:48.392Z,26.68
2023-06-20T13:02:14.998Z,26.56
2023-06-20T13:04:42.969Z,26.64
2023-06-20T13:07:09.579Z,26.65
2023-06-20T13:09:36.216Z,26.68
2023-06-20T13:12:02.845Z,26.43
2023-06-20T13:14:31.089Z,26.37
2023-06-20T13:16:58.008Z,26.42
2023-06-20T13:19:24.682Z,26.61
2023-06-20T13:21:52.646Z,26.47
2023-06-20T13:24:19.201Z,26.68
2023-06-20T13:26:45.857Z,26.21
2023-06-20T13:29:12.634Z,26.15
2023-06-20T13:31:39.231Z,26.18
2023-06-20T13:34:06.089Z,26.15
2023-06-20T13:36:33.213Z,26.46
2023-06-20T13:39:01.314Z,26.53
2023-06-20T13:41:28.343Z,26.74
2023-06-20T13:43:55.122Z,26.85
2023-06-20T13:46:21.920Z,26.82
2023-06-20T13:48:49.259Z,26.92
2023-06-20T13:51:16.310Z,26.22
2023-06-20T13:53:42.952Z,26.60
2023-06-20T13:56:10.931Z,26.75
2023-06-20T13:58:38.405Z,26.83
2023-06-20T14:01:05.271Z,26.72
2023-06-20T14:03:32.005Z,26.91
2023-06-20T14:05:58.728Z,26.64
2023-06-20T14:08:25.658Z,27.03
2023-06-20T14:10:52.286Z,26.70
2023-06-20T14:13:20.365Z,27.43
2023-06-20T14:15:47.195Z,27.93
2023-06-20T14:18:13.809Z,28.29
2023-06-20T14:20:40.913Z,27.82
2023-06-20T14:23:07.566Z,27.15
2023-06-20T14:25:34.154Z,27.64
2023-06-20T14:28:00.798Z,27.76
2023-06-20T14:30:29.159Z,27.61
2023-06-20T14:32:55.977Z,28.11
2023-06-20T14:35:22.563Z,28.33
2023-06-20T14:37:49.420Z,28.43
2023-06-20T14:40:15.993Z,28.64
2023-06-20T14:42:42.697Z,28.57
2023-06-20T14:45:10.286Z,28.72
2023-06-20T14:47:38.653Z,29.01
2023-06-20T14:50:06.389Z,27.76
2023-06-20T14:52:33.162Z,27.54
2023-06-20T14:54:59.865Z,27.67
2023-06-20T14:57:26.696Z,27.88
2023-06-20T14:59:53.295Z,28.29
2023-06-20T15:02:20.014Z,28.17
2023-06-20T15:04:48.095Z,28.57
2023-06-20T15:07:14.705Z,28.44
2023-06-20T15:09:41.468Z,29.04
2023-06-20T15:12:09.302Z,29.08
2023-06-20T15:14:35.873Z,29.23
2023-06-20T15:17:02.772Z,28.62
2023-06-20T15:19:29.457Z,28.50
2023-06-20T15:21:57.748Z,28.78
2023-06-20T15:24:24.393Z,28.40
2023-06-20T15:26:51.388Z,27.92
2023-06-20T15:29:20.048Z,27.92
2023-06-20T15:31:47.108Z,27.73
2023-06-20T15:34:13.783Z,27.50
2023-06-20T15:36:40.459Z,28.05
2023-06-20T15:39:08.374Z,28.09
2023-06-20T15:41:34.982Z,28.40
2023-06-20T15:44:02.933Z,28.17
2023-06-20T15:46:40.700Z,28.85
2023-06-20T15:49:16.040Z,28.64
2023-06-20T15:51:42.650Z,28.60
2023-06-20T15:54:10.772Z,28.70
2023-06-20T15:56:37.373Z,29.11
2023-06-20T15:59:04.237Z,28.90
2023-06-20T16:01:30.940Z,28.31
2023-06-20T16:03:58.890Z,28.69
2023-06-20T16:06:25.592Z,28.70
2023-06-20T16:08:52.456Z,29.11
2023-06-20T16:11:21.972Z,28.68
2023-06-20T16:13:48.551Z,28.57
2023-06-20T16:16:15.243Z,28.42
2023-06-20T16:18:41.978Z,28.44
2023-06-20T16:21:09.744Z,28.09
2023-06-20T16:23:39.295Z,28.34
2023-06-20T16:26:06.484Z,27.99
2023-06-20T16:28:34.668Z,28.26
2023-06-20T16:31:01.691Z,28.13
2023-06-20T16:33:40.699Z,28.09
2023-06-20T16:36:15.035Z,27.93
2023-06-20T16:38:41.709Z,27.91
2023-06-20T16:41:08.330Z,28.01
2023-06-20T16:43:36.651Z,28.07
2023-06-20T16:46:03.372Z,28.19
2023-06-20T16:48:30.003Z,28.51
2023-06-20T16:50:56.612Z,28.34
2023-06-20T16:53:23.261Z,28.14
2023-06-20T16:55:49.934Z,28.01
2023-06-20T16:58:16.734Z,28.50
2023-06-20T17:00:44.747Z,28.26
2023-06-20T17:03:13.375Z,27.47
2023-06-20T17:05:39.874Z,27.87
2023-06-20T17:08:06.674Z,27.85
2023-06-20T17:10:33.531Z,27.76
2023-06-20T17:13:00.195Z,27.91
2023-06-20T17:15:26.801Z,27.66
2023-06-20T17:17:54.850Z,27.83
2023-06-20T17:20:21.456Z,27.64
2023-06-20T17:22:48.172Z,27.46
2023-06-20T17:25:14.796Z,27.77
2023-06-20T17:27:41.419Z,27.51
2023-06-20T17:30:08.934Z,27.53
2023-06-20T17:32:35.665Z,27.41
2023-06-20T17:35:04.440Z,27.34
2023-06-20T17:37:30.859Z,27.29
2023-06-20T17:39:57.581Z,27.36
2023-06-20T17:42:24.319Z,27.44
2023-06-20T17:44:51.031Z,27.45
2023-06-20T17:47:18.087Z,27.24
2023-06-20T17:49:44.835Z,27.20
2023-06-20T17:52:12.852Z,27.32
2023-06-20T17:54:39.723Z,27.37
2023-06-20T17:57:06.940Z,27.23
2023-06-20T17:59:33.556Z,27.06
2023-06-20T18:02:00.244Z,27.00
2023-06-20T18:04:27.009Z,27.05
2023-06-20T18:06:53.653Z,26.90
2023-06-20T18:09:21.597Z,26.91
2023-06-20T18:11:49.975Z,26.74
2023-06-20T18:14:17.620Z,26.71
2023-06-20T18:16:44.280Z,26.66
2023-06-20T18:19:10.867Z,26.67
2023-06-20T18:21:39.807Z,26.60
2023-06-20T18:24:07.121Z,26.50
2023-06-20T18:26:35.358Z,26.40
2023-06-20T18:29:01.925Z,26.32
2023-06-20T18:31:28.601Z,26.20
2023-06-20T18:33:55.449Z,26.31
2023-06-20T18:36:22.259Z,26.06
2023-06-20T18:38:48.858Z,26.16
2023-06-20T18:41:15.467Z,26.18
2023-06-20T18:43:43.452Z,25.99
2023-06-20T18:46:10.023Z,25.90
2023-06-20T18:48:36.624Z,25.96
2023-06-20T18:51:03.359Z,25.84
2023-06-20T18:53:29.955Z,26.01
2023-06-20T18:55:56.659Z,26.05
2023-06-20T18:58:23.260Z,26.11
2023-06-20T19:00:51.373Z,26.04
2023-06-20T19:03:18.063Z,25.74
2023-06-20T19:05:44.652Z,25.74
2023-06-20T19:08:11.247Z,25.65
2023-06-20T19:10:39.159Z,25.65
2023-06-20T19:13:05.766Z,25.52
2023-06-20T19:15:33.033Z,25.62
2023-06-20T19:18:00.998Z,25.68
2023-06-20T19:20:27.905Z,25.75
2023-06-20T19:22:54.741Z,25.61
2023-06-20T19:25:22.172Z,25.80
2023-06-20T19:27:48.851Z,25.28
2023-06-20T19:30:16.530Z,25.33
2023-06-20T19:32:43.760Z,25.25
2023-06-20T19:35:11.847Z,25.30
2023-06-20T19:37:38.514Z,25.17
2023-06-20T19:40:08.592Z,24.82
2023-06-20T19:42:35.815Z,24.94
2023-06-20T19:45:04.186Z,24.83
2023-06-20T19:47:30.821Z,25.02
2023-06-20T19:49:57.461Z,23.77
2023-06-20T19:52:25.365Z,22.31
2023-06-20T19:54:51.944Z,21.85
2023-06-20T19:57:18.542Z,21.47
2023-06-20T19:59:45.106Z,21.32
2023-06-20T20:02:12.034Z,20.70
2023-06-20T20:04:38.669Z,19.85
2023-06-20T20:07:05.998Z,19.85
2023-06-20T20:09:33.984Z,19.62
2023-06-20T20:12:00.802Z,19.63
2023-06-20T20:14:27.388Z,19.56
2023-06-20T20:16:54.211Z,19.31
2023-06-20T20:19:23.066Z,19.45
2023-06-20T20:21:50.001Z,19.35
2023-06-20T20:24:16.663Z,19.62
2023-06-20T20:26:44.669Z,19.66
2023-06-20T20:29:11.232Z,19.72
2023-06-20T20:31:37.828Z,19.81
2023-06-20T20:34:04.432Z,19.93
2023-06-20T20:36:31.009Z,19.82
2023-06-20T20:38:57.650Z,19.94
2023-06-20T20:41:24.277Z,20.16
2023-06-20T20:43:52.214Z,20.35
2023-06-20T20:46:18.995Z,20.55
2023-06-20T20:48:45.649Z,20.45
2023-06-20T20:51:12.360Z,20.42
2023-06-20T20:53:39.004Z,20.28
2023-06-20T20:56:05.580Z,20.39
2023-06-20T20:58:32.188Z,20.54
2023-06-20T21:01:00.231Z,20.55
2023-06-20T21:03:27.751Z,20.25
2023-06-20T21:05:54.711Z,20.12
2023-06-20T21:08:23.714Z,20.58
2023-06-20T21:10:50.558Z,20.46
2023-06-20T21:13:17.287Z,20.23
2023-06-20T21:15:44.142Z,20.25
2023-06-20T21:18:12.194Z,20.20
2023-06-20T21:20:38.865Z,20.24
2023-06-20T21:23:05.551Z,20.50
2023-06-20T21:25:32.687Z,20.74
2023-06-20T21:27:59.458Z,20.65
2023-06-20T21:30:26.429Z,20.39
2023-06-20T21:32:53.551Z,20.60
2023-06-20T21:35:21.538Z,20.91
2023-06-20T21:37:48.264Z,21.02
2023-06-20T21:40:14.865Z,20.59
2023-06-20T21:42:46.975Z,20.81
2023-06-20T21:45:13.686Z,20.66
2023-06-20T21:47:40.387Z,20.48
2023-06-20T21:50:07.900Z,20.81
2023-06-20T21:52:36.098Z,20.28
2023-06-20T21:55:02.644Z,20.26
2023-06-20T21:57:29.610Z,20.55
2023-06-20T21:59:56.350Z,20.68
2023-06-20T22:02:22.977Z,20.60
2023-06-20T22:04:49.573Z,20.70
2023-06-20T22:07:16.131Z,20.62
2023-06-20T22:09:58.250Z,20.82
2023-06-20T22:12:29.071Z,20.70
2023-06-20T22:14:55.640Z,20.68
2023-06-20T22:17:23.619Z,20.59
2023-06-20T22:19:50.441Z,20.79
2023-06-20T22:22:17.117Z,20.66
2023-06-20T22:24:45.132Z,20.78
2023-06-20T22:27:11.854Z,20.41
2023-06-20T22:29:38.458Z,20.44
2023-06-20T22:32:05.780Z,20.41
2023-06-20T22:34:32.473Z,20.45
2023-06-20T22:36:59.012Z,20.38
2023-06-20T22:39:25.606Z,20.65
2023-06-20T22:41:54.046Z,20.71
2023-06-20T22:44:22.656Z,20.66
2023-06-20T22:46:49.267Z,20.56
2023-06-20T22:49:15.849Z,20.61
2023-06-20T22:51:44.566Z,20.68
2023-06-20T22:54:11.149Z,20.62
2023-06-20T22:56:37.716Z,20.67
2023-06-20T22:59:05.636Z,20.74
2023-06-20T23:01:32.276Z,20.70
2023-06-20T23:03:58.871Z,20.65
2023-06-20T23:06:25.571Z,20.51
2023-06-20T23:08:52.174Z,20.46
2023-06-20T23:11:18.889Z,20.47
2023-06-20T23:13:45.442Z,20.37
2023-06-20T23:16:13.449Z,20.45
2023-06-20T23:18:40.129Z,20.28
2023-06-20T23:21:06.730Z,20.27
2023-06-20T23:23:33.543Z,20.30
2023-06-20T23:26:01.057Z,20.33
2023-06-20T23:28:27.613Z,20.27
2023-06-20T23:30:54.576Z,20.13
2023-06-20T23:33:22.602Z,20.27
2023-06-20T23:35:49.214Z,19.95
2023-06-20T23:38:15.809Z,20.05
2023-06-20T23:40:42.476Z,19.99
2023-06-20T23:43:09.163Z,19.86
2023-06-20T23:45:35.757Z,19.90
2023-06-20T23:48:02.408Z,19.71
2023-06-20T23:50:30.449Z,19.79
2023-06-20T23:52:57.145Z,19.54
2023-06-20T23:55:23.703Z,19.63
2023-06-20T23:57:50.282Z,19.60
